Time;durP1;ratioP1;P1;durP2;ratioP2;P2;SDS_P1;SDS_P2;PMS_P1;PMS_P2;Temp;Humidity;BMP_temperature;BMP_pressure;BME280_temperature;BME280_humidity;BME280_pressure;Samples;Min_cycle;Max_cycle;Signal;HPM_P1;HPM_P2
2022/03/31 00:00:34;;;;;;;13.40;9.50;;;6.40;99.90;;;;;;5138129;27;20297;-80
2022/03/31 00:03:03;;;;;;;8.60;7.38;;;6.40;99.90;;;;;;5139411;27;20299;-81
2022/03/31 00:05:30;;;;;;;10.50;7.18;;;6.40;99.90;;;;;;5124085;28;20201;-81
2022/03/31 00:07:58;;;;;;;11.77;8.25;;;6.40;99.90;;;;;;5128821;28;20235;-81
2022/03/31 00:10:30;;;;;;;10.52;8.52;;;6.40;99.90;;;;;;5117770;28;20198;-80
2022/03/31 00:12:58;;;;;;;10.88;7.25;;;6.40;99.90;;;;;;5133904;27;20194;-81
2022/03/31 00:15:27;;;;;;;11.40;8.90;;;6.40;99.90;;;;;;5141637;27;20222;-81
2022/03/31 00:17:54;;;;;;;10.77;7.25;;;6.40;99.90;;;;;;5141985;27;20205;-81
2022/03/31 00:20:21;;;;;;;10.85;8.35;;;6.40;99.90;;;;;;5137058;27;20191;-80
2022/03/31 00:22:48;;;;;;;12.68;7.80;;;6.30;99.90;;;;;;5134992;27;20182;-82
2022/03/31 00:25:15;;;;;;;11.48;7.88;;;6.30;99.90;;;;;;5136842;27;20227;-81
2022/03/31 00:27:43;;;;;;;8.70;6.63;;;6.30;99.90;;;;;;5134542;28;20205;-81
2022/03/31 00:30:11;;;;;;;9.38;7.80;;;6.30;99.90;;;;;;5139963;27;20255;-81
2022/03/31 00:32:39;;;;;;;11.68;8.20;;;6.30;99.90;;;;;;5143316;27;20571;-82
2022/03/31 00:35:08;;;;;;;12.15;7.72;;;6.20;99.90;;;;;;5135283;28;20289;-79
2022/03/31 00:37:35;;;;;;;9.18;7.25;;;6.30;99.90;;;;;;5138375;27;20198;-81
2022/03/31 00:40:02;;;;;;;21.55;8.60;;;6.30;99.90;;;;;;5139368;27;20240;-80
2022/03/31 00:42:29;;;;;;;13.35;8.68;;;6.30;99.90;;;;;;5139389;27;20226;-82
2022/03/31 00:44:59;;;;;;;9.80;6.60;;;6.30;99.90;;;;;;5143603;27;20191;-82
2022/03/31 00:47:25;;;;;;;10.05;7.60;;;6.30;99.90;;;;;;5141539;27;20218;-82
2022/03/31 00:49:52;;;;;;;13.40;7.35;;;6.30;99.90;;;;;;5135579;28;20194;-82
2022/03/31 00:52:19;;;;;;;11.07;7.28;;;6.30;99.90;;;;;;5135662;28;20219;-81
2022/03/31 00:54:47;;;;;;;9.98;6.70;;;6.30;99.90;;;;;;5144442;27;20248;-80
2022/03/31 00:57:15;;;;;;;9.90;7.50;;;6.30;99.90;;;;;;5146910;27;20198;-79
2022/03/31 00:59:42;;;;;;;8.52;6.50;;;6.20;99.90;;;;;;5133431;28;20202;-81
2022/03/31 01:02:12;;;;;;;11.73;7.32;;;6.20;99.90;;;;;;5141597;27;20309;-81
2022/03/31 01:04:41;;;;;;;9.25;6.65;;;6.20;99.90;;;;;;5154899;27;20201;-79
2022/03/31 01:07:08;;;;;;;11.00;6.15;;;6.10;99.90;;;;;;5138402;27;20223;-79
2022/03/31 01:09:36;;;;;;;10.57;6.25;;;6.10;99.90;;;;;;5138658;28;20175;-81
2022/03/31 01:12:03;;;;;;;9.18;6.28;;;6.20;99.90;;;;;;5137951;28;20697;-81
2022/03/31 01:14:32;;;;;;;6.80;6.13;;;6.20;99.90;;;;;;5136574;28;20230;-80
2022/03/31 01:17:00;;;;;;;12.63;8.32;;;6.20;99.90;;;;;;5138612;27;20178;-80
2022/03/31 01:19:28;;;;;;;6.90;5.43;;;6.10;99.90;;;;;;5146730;27;20355;-79
2022/03/31 01:21:56;;;;;;;10.10;6.82;;;6.10;99.90;;;;;;5147585;27;20231;-79
2022/03/31 01:24:25;;;;;;;6.38;5.00;;;6.10;99.90;;;;;;5146480;27;20201;-81
2022/03/31 01:26:52;;;;;;;10.13;7.70;;;6.10;99.90;;;;;;5141477;27;20198;-81
2022/03/31 01:29:19;;;;;;;7.40;6.28;;;6.10;99.90;;;;;;5140947;27;20194;-79
2022/03/31 01:31:46;;;;;;;8.20;6.82;;;6.00;99.90;;;;;;5129906;28;20289;-81
2022/03/31 01:34:13;;;;;;;8.30;7.10;;;6.00;99.90;;;;;;5127367;28;20217;-80
2022/03/31 01:36:40;;;;;;;9.30;6.00;;;6.00;99.90;;;;;;5133664;28;20195;-81
2022/03/31 01:39:07;;;;;;;9.20;6.38;;;5.90;99.90;;;;;;5144118;27;20239;-81
2022/03/31 01:41:35;;;;;;;9.75;6.60;;;5.90;99.90;;;;;;5144347;27;20242;-82
2022/03/31 01:44:03;;;;;;;7.47;6.60;;;5.90;99.90;;;;;;5127707;27;20247;-81
2022/03/31 01:46:30;;;;;;;8.32;6.80;;;5.90;99.90;;;;;;5135493;27;20199;-81
2022/03/31 01:48:57;;;;;;;8.77;7.55;;;5.90;99.90;;;;;;5124600;28;20202;-79
2022/03/31 01:51:24;;;;;;;8.75;6.03;;;5.90;99.90;;;;;;5134624;28;20222;-81
2022/03/31 01:53:51;;;;;;;8.35;6.50;;;6.00;99.90;;;;;;5133630;28;20213;-82
2022/03/31 01:56:18;;;;;;;8.57;6.40;;;6.00;99.90;;;;;;5145196;27;20212;-79
2022/03/31 01:58:46;;;;;;;8.98;6.60;;;6.00;99.90;;;;;;5133410;28;20201;-79
2022/03/31 02:01:13;;;;;;;11.45;6.35;;;6.10;99.90;;;;;;5136458;27;20247;-79
2022/03/31 02:03:40;;;;;;;7.10;6.22;;;6.10;99.90;;;;;;5136936;28;20204;-79
2022/03/31 02:06:07;;;;;;;7.60;5.70;;;6.10;99.90;;;;;;5134023;28;20253;-78
2022/03/31 02:08:34;;;;;;;6.72;6.13;;;6.10;99.90;;;;;;5137767;27;20185;-81
2022/03/31 02:11:02;;;;;;;9.23;6.03;;;6.10;99.90;;;;;;5139196;27;20233;-81
2022/03/31 02:13:29;;;;;;;9.65;6.97;;;6.10;99.90;;;;;;5139112;28;20182;-81
2022/03/31 02:15:58;;;;;;;8.77;6.13;;;6.10;99.90;;;;;;5139022;28;20209;-79
2022/03/31 02:18:25;;;;;;;5.68;4.78;;;6.10;99.90;;;;;;5139947;27;20209;-79
2022/03/31 02:20:52;;;;;;;9.13;5.90;;;6.10;99.90;;;;;;5139664;27;20241;-80
2022/03/31 02:23:19;;;;;;;7.78;5.75;;;6.00;99.90;;;;;;5139567;27;20193;-80
2022/03/31 02:25:46;;;;;;;9.00;5.88;;;6.00;99.90;;;;;;5139621;27;20182;-80
2022/03/31 02:28:13;;;;;;;7.03;5.75;;;5.90;99.90;;;;;;5133894;27;20191;-79
2022/03/31 02:30:41;;;;;;;8.10;5.97;;;5.70;99.90;;;;;;5147277;27;20205;-79
2022/03/31 02:33:09;;;;;;;10.60;6.10;;;5.70;99.90;;;;;;5138119;28;20178;-81
2022/03/31 02:35:36;;;;;;;7.00;5.10;;;5.60;99.90;;;;;;5132684;28;20206;-82
2022/03/31 02:38:03;;;;;;;6.20;5.15;;;5.50;99.90;;;;;;5133855;28;20361;-79
2022/03/31 02:40:30;;;;;;;6.43;5.47;;;5.50;99.90;;;;;;5133545;28;20244;-80
2022/03/31 02:42:57;;;;;;;8.70;5.78;;;5.30;99.90;;;;;;5133704;27;20205;-81
2022/03/31 02:45:24;;;;;;;7.95;5.15;;;5.30;99.90;;;;;;5138477;27;20231;-81
2022/03/31 02:47:51;;;;;;;7.75;5.30;;;5.30;99.90;;;;;;5139984;27;20198;-82
2022/03/31 02:50:19;;;;;;;8.23;5.13;;;5.40;99.90;;;;;;5128623;27;20281;-81
2022/03/31 02:55:32;;;;;;;7.38;5.22;;;5.40;99.90;;;;;;5136864;27;20238;-80
2022/03/31 02:58:01;;;;;;;12.40;6.60;;;5.20;99.90;;;;;;5134515;28;20203;-80
2022/03/31 03:00:30;;;;;;;10.05;6.57;;;5.20;99.90;;;;;;5135445;27;20194;-80
2022/03/31 03:02:58;;;;;;;9.15;6.18;;;5.10;99.90;;;;;;5136593;27;20247;-80
2022/03/31 03:05:26;;;;;;;11.35;7.63;;;5.10;99.90;;;;;;5135921;28;20205;-82
2022/03/31 03:07:53;;;;;;;8.02;6.13;;;5.00;99.90;;;;;;5135307;28;20182;-80
2022/03/31 03:10:20;;;;;;;7.75;6.30;;;5.00;99.90;;;;;;5136621;27;20193;-79
2022/03/31 03:12:47;;;;;;;8.38;7.10;;;5.00;99.90;;;;;;5131850;28;20221;-80
2022/03/31 03:15:14;;;;;;;10.50;5.93;;;5.10;99.90;;;;;;5121137;28;20593;-79
2022/03/31 03:17:42;;;;;;;6.53;5.82;;;5.00;99.90;;;;;;5137227;27;20257;-80
2022/03/31 03:20:13;;;;;;;10.32;5.93;;;5.00;99.90;;;;;;5133229;27;20193;-81
2022/03/31 03:22:42;;;;;;;6.93;5.15;;;4.80;99.90;;;;;;5146973;27;20288;-80
2022/03/31 03:25:09;;;;;;;7.97;6.35;;;4.80;99.90;;;;;;5138704;27;20225;-79
2022/03/31 03:27:36;;;;;;;7.07;5.10;;;4.70;99.90;;;;;;5139626;27;20208;-80
2022/03/31 03:30:04;;;;;;;10.10;6.88;;;4.60;99.90;;;;;;5132124;27;20273;-81
2022/03/31 03:32:31;;;;;;;7.82;6.38;;;4.50;99.90;;;;;;5136749;27;20220;-80
2022/03/31 03:34:58;;;;;;;7.88;5.55;;;4.50;99.90;;;;;;5139668;27;20232;-81
2022/03/31 03:37:24;;;;;;;8.27;5.70;;;4.50;99.90;;;;;;5135480;28;20209;-81
2022/03/31 03:39:53;;;;;;;7.38;6.00;;;4.40;99.90;;;;;;5139479;27;20219;-80
2022/03/31 03:42:20;;;;;;;7.57;5.30;;;4.40;99.90;;;;;;5133894;28;20220;-80
2022/03/31 03:44:47;;;;;;;11.45;5.45;;;4.30;99.90;;;;;;5129226;28;20193;-79
2022/03/31 03:47:14;;;;;;;7.55;6.75;;;4.30;99.90;;;;;;5134343;28;20232;-78
2022/03/31 03:49:41;;;;;;;11.40;7.00;;;4.20;99.90;;;;;;5134282;28;20249;-79
2022/03/31 03:52:09;;;;;;;8.35;6.05;;;4.20;99.90;;;;;;5134617;28;20217;-80
2022/03/31 03:54:36;;;;;;;18.23;7.15;;;4.20;99.90;;;;;;5138232;28;20236;-79
2022/03/31 03:57:05;;;;;;;9.45;5.85;;;4.20;99.90;;;;;;5138727;27;20276;-79
2022/03/31 03:59:32;;;;;;;9.95;7.10;;;4.10;99.90;;;;;;5149611;27;20224;-79
2022/03/31 04:01:59;;;;;;;9.43;6.80;;;4.10;99.90;;;;;;5138893;27;20685;-80
2022/03/31 04:04:27;;;;;;;10.48;5.85;;;4.30;99.90;;;;;;5131269;28;20217;-80
2022/03/31 04:06:54;;;;;;;8.23;6.10;;;4.00;99.90;;;;;;5121999;28;20201;-81
2022/03/31 04:09:21;;;;;;;7.40;5.53;;;4.00;99.90;;;;;;5136642;28;20197;-80
2022/03/31 04:15:42;;;;;;;12.40;7.57;;;3.90;99.90;;;;;;5128636;22;20205;-72
2022/03/31 04:18:09;;;;;;;7.65;5.82;;;3.90;99.90;;;;;;5116271;28;20209;-73
2022/03/31 04:21:02;;;;;;;7.57;6.53;;;3.90;99.90;;;;;;5144736;27;20197;-71
2022/03/31 04:23:30;;;;;;;7.32;5.85;;;3.80;99.90;;;;;;5131850;28;20200;-72
2022/03/31 04:25:57;;;;;;;7.43;5.95;;;3.70;99.90;;;;;;5129693;28;20197;-71
2022/03/31 04:28:24;;;;;;;8.27;6.45;;;3.70;99.90;;;;;;5133533;28;20292;-72
2022/03/31 04:30:52;;;;;;;5.20;4.70;;;3.60;99.90;;;;;;5129923;28;20257;-73
2022/03/31 04:33:19;;;;;;;5.15;4.63;;;3.50;99.90;;;;;;5128403;28;20261;-72
2022/03/31 04:35:46;;;;;;;6.53;5.93;;;3.50;99.90;;;;;;5123634;28;20225;-74
2022/03/31 04:38:14;;;;;;;6.80;6.10;;;3.40;99.90;;;;;;5107072;28;20246;-74
2022/03/31 04:40:41;;;;;;;6.25;5.75;;;3.40;99.90;;;;;;5122782;28;20284;-74
2022/03/31 04:43:08;;;;;;;6.45;5.85;;;3.30;99.90;;;;;;5121577;28;20723;-74
2022/03/31 04:45:59;;;;;;;7.85;6.88;;;3.30;99.90;;;;;;5110438;28;20249;-75
2022/03/31 04:48:26;;;;;;;7.63;6.10;;;3.20;99.90;;;;;;5094321;28;20260;-76
2022/03/31 04:50:59;;;;;;;6.05;5.45;;;3.20;99.90;;;;;;5117136;28;20196;-76
2022/03/31 04:53:25;;;;;;;5.90;5.30;;;3.20;99.90;;;;;;5103608;28;20202;-76
2022/03/31 04:55:52;;;;;;;8.45;6.40;;;3.10;99.90;;;;;;5102792;28;20294;-72
2022/03/31 04:58:36;;;;;;;7.65;5.10;;;3.10;99.90;;;;;;5109958;27;20285;-75
2022/03/31 05:01:05;;;;;;;6.70;4.90;;;3.10;99.90;;;;;;5104310;28;20201;-73
2022/03/31 05:03:32;;;;;;;5.97;5.38;;;3.10;99.90;;;;;;5116401;28;20266;-73
2022/03/31 05:06:22;;;;;;;6.45;5.85;;;3.00;99.90;;;;;;5105591;28;20196;-74
2022/03/31 05:08:49;;;;;;;6.03;5.45;;;3.00;99.90;;;;;;5109674;27;20202;-74
2022/03/31 05:11:17;;;;;;;7.60;6.80;;;2.90;99.90;;;;;;5118490;27;20216;-73
2022/03/31 05:13:43;;;;;;;7.15;6.55;;;3.00;99.90;;;;;;5111303;27;20220;-72
2022/03/31 05:16:12;;;;;;;10.65;7.53;;;3.10;99.90;;;;;;5110397;27;20335;-72
2022/03/31 05:18:39;;;;;;;5.72;5.18;;;3.10;99.90;;;;;;5134173;27;20226;-72
2022/03/31 05:21:06;;;;;;;7.50;6.20;;;3.10;99.90;;;;;;5101130;27;20213;-75
2022/03/31 05:23:33;;;;;;;7.20;6.50;;;3.10;99.90;;;;;;5115986;27;20282;-71
2022/03/31 05:26:00;;;;;;;7.63;6.90;;;3.10;99.90;;;;;;5116277;27;20187;-73
2022/03/31 05:28:27;;;;;;;8.88;6.53;;;3.20;99.90;;;;;;5124624;27;20233;-72
2022/03/31 05:30:54;;;;;;;7.90;7.20;;;3.10;99.90;;;;;;5127030;27;20574;-72
2022/03/31 05:33:22;;;;;;;8.27;7.22;;;3.00;99.90;;;;;;5127560;27;20292;-72
2022/03/31 05:35:49;;;;;;;8.60;7.78;;;3.00;99.90;;;;;;5115729;27;20301;-71
2022/03/31 05:38:16;;;;;;;8.93;8.02;;;3.10;99.90;;;;;;5136751;27;20189;-72
2022/03/31 05:40:43;;;;;;;9.15;8.25;;;3.00;99.90;;;;;;5125632;27;20198;-72
2022/03/31 05:43:10;;;;;;;8.07;7.28;;;3.10;99.90;;;;;;5133592;27;20270;-72
2022/03/31 05:45:37;;;;;;;10.23;9.20;;;3.10;99.90;;;;;;5131682;27;20217;-71
2022/03/31 05:48:04;;;;;;;10.35;8.60;;;3.10;99.90;;;;;;5128057;27;20197;-72
2022/03/31 05:50:33;;;;;;;12.95;10.88;;;3.10;99.90;;;;;;5128016;27;20201;-71
2022/03/31 05:53:00;;;;;;;12.50;10.88;;;3.00;99.90;;;;;;5133690;27;20193;-72
2022/03/31 05:55:27;;;;;;;12.10;10.18;;;3.00;99.90;;;;;;5117391;27;20320;-71
2022/03/31 05:57:54;;;;;;;11.45;9.93;;;3.00;99.90;;;;;;5128363;27;20283;-72
2022/03/31 06:00:22;;;;;;;11.65;10.43;;;3.00;99.90;;;;;;5122917;27;20204;-73
2022/03/31 06:02:50;;;;;;;12.40;10.32;;;3.10;99.90;;;;;;5097113;28;20693;-72
2022/03/31 06:05:18;;;;;;;13.05;10.75;;;3.10;99.90;;;;;;5095485;28;20706;-72
2022/03/31 06:07:47;;;;;;;12.30;10.50;;;3.10;99.90;;;;;;5095668;27;20198;-74
2022/03/31 06:10:13;;;;;;;12.32;11.02;;;3.10;99.90;;;;;;5102546;27;20250;-74
2022/03/31 06:12:42;;;;;;;12.57;9.85;;;3.00;99.90;;;;;;5103080;27;20282;-75
2022/03/31 06:15:11;;;;;;;14.18;11.68;;;3.00;99.90;;;;;;5105395;27;20614;-74
2022/03/31 06:17:42;;;;;;;19.25;11.07;;;3.10;99.90;;;;;;5119596;27;20599;-74
2022/03/31 06:20:10;;;;;;;12.65;11.25;;;3.00;99.90;;;;;;5128420;27;20211;-74
2022/03/31 06:22:37;;;;;;;12.27;10.73;;;3.00;99.90;;;;;;5141818;27;20223;-71
2022/03/31 06:25:10;;;;;;;14.50;11.60;;;2.90;99.90;;;;;;5137573;27;20579;-72
2022/03/31 06:27:38;;;;;;;16.15;13.27;;;2.90;99.90;;;;;;5114691;28;20206;-73
2022/03/31 06:30:06;;;;;;;14.50;13.00;;;3.00;99.90;;;;;;5114757;27;20202;-73
2022/03/31 06:32:33;;;;;;;15.05;11.45;;;3.00;99.90;;;;;;5113102;28;20221;-73
2022/03/31 06:35:00;;;;;;;19.25;14.23;;;3.10;99.90;;;;;;5133124;27;20220;-74
2022/03/31 06:37:28;;;;;;;20.50;14.98;;;3.10;99.90;;;;;;5115737;28;20221;-72
2022/03/31 06:39:55;;;;;;;18.92;12.68;;;3.00;99.90;;;;;;5118315;27;20280;-76
2022/03/31 06:42:24;;;;;;;16.83;13.13;;;3.00;99.90;;;;;;5119200;27;20239;-73
2022/03/31 06:44:50;;;;;;;16.65;13.25;;;3.00;99.90;;;;;;5119659;27;20304;-73
2022/03/31 06:47:17;;;;;;;14.85;13.23;;;3.00;99.90;;;;;;5111323;27;20308;-72
2022/03/31 06:49:44;;;;;;;17.02;13.60;;;3.00;99.90;;;;;;5109594;27;20194;-71
2022/03/31 06:52:11;;;;;;;18.20;14.02;;;3.10;99.90;;;;;;5106932;28;20363;-71
2022/03/31 06:54:38;;;;;;;20.13;15.10;;;3.00;99.90;;;;;;5111370;27;20253;-70
2022/03/31 06:57:05;;;;;;;19.08;15.20;;;3.10;99.90;;;;;;5115506;27;20223;-70
2022/03/31 06:59:33;;;;;;;18.00;14.48;;;3.10;99.90;;;;;;5127213;27;20204;-73
2022/03/31 07:02:01;;;;;;;18.20;14.82;;;3.10;99.90;;;;;;5120947;27;20668;-70
2022/03/31 07:04:28;;;;;;;21.15;14.15;;;3.00;99.90;;;;;;5124793;27;20248;-72
2022/03/31 07:06:55;;;;;;;18.25;16.25;;;3.10;99.90;;;;;;5098149;28;20189;-72
2022/03/31 07:09:22;;;;;;;24.00;16.17;;;3.10;99.90;;;;;;5094005;27;20205;-72
2022/03/31 07:11:49;;;;;;;17.13;13.57;;;3.10;99.90;;;;;;5093167;28;20311;-70
2022/03/31 07:14:17;;;;;;;20.20;16.38;;;3.10;99.90;;;;;;5097506;28;20245;-70
2022/03/31 07:16:46;;;;;;;24.92;16.70;;;3.20;99.90;;;;;;5106223;28;20313;-71
2022/03/31 07:19:13;;;;;;;18.60;14.50;;;3.20;99.90;;;;;;5118255;27;20200;-71
2022/03/31 07:21:40;;;;;;;21.00;16.95;;;3.20;99.90;;;;;;5100825;28;20207;-71
2022/03/31 07:24:08;;;;;;;18.50;16.00;;;3.20;99.90;;;;;;5126108;27;20317;-70
2022/03/31 07:26:35;;;;;;;18.08;15.70;;;3.20;99.90;;;;;;5114367;27;20248;-71
2022/03/31 07:29:03;;;;;;;22.88;16.92;;;3.40;99.90;;;;;;5123540;27;20311;-71
2022/03/31 07:31:30;;;;;;;22.80;16.40;;;3.40;99.90;;;;;;5123630;27;20228;-71
2022/03/31 07:33:58;;;;;;;20.13;16.48;;;3.40;99.90;;;;;;5119085;27;20668;-70
2022/03/31 07:36:25;;;;;;;26.73;19.38;;;3.40;99.90;;;;;;5126080;27;20308;-70
2022/03/31 07:38:52;;;;;;;22.45;16.05;;;3.50;99.90;;;;;;5132494;27;20242;-70
2022/03/31 07:41:19;;;;;;;19.92;15.85;;;3.50;99.90;;;;;;5122697;27;20209;-70
2022/03/31 07:43:47;;;;;;;18.58;15.77;;;3.60;99.90;;;;;;5125369;27;20312;-68
2022/03/31 07:46:14;;;;;;;19.73;15.48;;;3.70;99.90;;;;;;5116150;27;20287;-70
2022/03/31 07:48:41;;;;;;;20.55;15.35;;;3.70;99.90;;;;;;5117881;27;20286;-71
2022/03/31 07:51:09;;;;;;;21.50;16.50;;;3.70;99.90;;;;;;5128584;27;20235;-71
2022/03/31 07:53:38;;;;;;;18.70;15.75;;;3.80;99.90;;;;;;5115978;27;20216;-71
2022/03/31 07:56:06;;;;;;;17.52;14.40;;;3.80;99.90;;;;;;5117506;27;20217;-71
2022/03/31 07:58:34;;;;;;;20.85;17.02;;;3.80;99.90;;;;;;5126665;27;20185;-72
2022/03/31 08:01:01;;;;;;;18.98;15.35;;;3.60;99.90;;;;;;5104376;27;20566;-72
2022/03/31 08:03:28;;;;;;;21.00;16.55;;;3.90;99.90;;;;;;5108707;27;20204;-72
2022/03/31 08:05:55;;;;;;;20.73;17.25;;;3.90;99.90;;;;;;5120043;27;20196;-71
2022/03/31 08:08:23;;;;;;;19.77;16.63;;;3.80;99.90;;;;;;5123735;28;20199;-72
2022/03/31 08:10:51;;;;;;;19.38;15.82;;;3.80;99.90;;;;;;5114071;28;20257;-71
2022/03/31 08:13:25;;;;;;;20.25;15.68;;;4.00;99.90;;;;;;5131705;28;20557;-72
2022/03/31 08:15:53;;;;;;;21.92;16.45;;;4.10;99.90;;;;;;5127614;28;20209;-70
2022/03/31 08:18:28;;;;;;;22.25;17.48;;;4.10;99.90;;;;;;5124783;28;20627;-70
2022/03/31 08:20:56;;;;;;;18.17;13.88;;;4.00;99.90;;;;;;5116855;27;20212;-71
2022/03/31 08:23:25;;;;;;;17.02;13.85;;;4.20;99.90;;;;;;5130418;28;20199;-71
2022/03/31 08:25:53;;;;;;;18.55;12.77;;;4.40;99.90;;;;;;5116216;28;20200;-71
2022/03/31 08:28:20;;;;;;;17.17;14.85;;;4.40;99.90;;;;;;5127831;28;20228;-69
2022/03/31 08:30:48;;;;;;;16.83;13.95;;;4.40;99.90;;;;;;5111927;28;20208;-70
2022/03/31 08:33:15;;;;;;;15.10;13.57;;;4.40;99.90;;;;;;5097604;27;20247;-73
2022/03/31 08:35:42;;;;;;;16.17;14.15;;;4.50;99.90;;;;;;5118646;27;20240;-71
2022/03/31 08:38:09;;;;;;;21.15;15.15;;;4.60;99.90;;;;;;5115515;27;20204;-71
2022/03/31 08:40:38;;;;;;;19.73;14.90;;;4.60;99.90;;;;;;5106344;28;20570;-70
2022/03/31 08:43:05;;;;;;;20.35;16.27;;;4.60;99.90;;;;;;5118848;27;20235;-71
2022/03/31 08:45:36;;;;;;;15.90;13.65;;;4.60;99.90;;;;;;5100303;28;20237;-71
2022/03/31 08:48:04;;;;;;;15.57;12.95;;;4.60;99.90;;;;;;5114182;28;20259;-70
2022/03/31 08:50:35;;;;;;;18.17;12.85;;;4.80;99.90;;;;;;5108669;28;20229;-70
2022/03/31 08:53:02;;;;;;;18.25;14.30;;;5.10;99.90;;;;;;5107767;28;20246;-71
2022/03/31 08:55:29;;;;;;;14.50;12.38;;;5.50;99.90;;;;;;5104948;28;20696;-70
2022/03/31 08:57:58;;;;;;;17.50;12.90;;;5.60;99.90;;;;;;5099596;28;20318;-71
2022/03/31 09:00:26;;;;;;;12.35;11.10;;;5.90;99.90;;;;;;5105794;28;20251;-72
2022/03/31 09:02:59;;;;;;;13.23;10.70;;;6.20;99.90;;;;;;5116695;27;20205;-72
2022/03/31 09:05:27;;;;;;;12.38;10.90;;;6.20;99.90;;;;;;5115932;27;20249;-71
2022/03/31 09:08:00;;;;;;;16.02;12.35;;;6.30;99.90;;;;;;5112606;28;20600;-71
2022/03/31 09:10:28;;;;;;;17.23;12.68;;;6.40;99.90;;;;;;5111579;28;20221;-71
2022/03/31 09:12:58;;;;;;;11.80;10.60;;;6.40;99.90;;;;;;5111210;27;20195;-70
2022/03/31 09:15:25;;;;;;;11.82;9.82;;;6.40;99.90;;;;;;5108196;28;20289;-71
2022/03/31 09:17:57;;;;;;;14.80;13.30;;;6.40;99.90;;;;;;5110835;28;20499;-71
2022/03/31 09:20:25;;;;;;;16.08;11.85;;;6.50;99.90;;;;;;5125147;27;20502;-70
2022/03/31 09:22:52;;;;;;;12.55;11.02;;;6.70;99.90;;;;;;5122020;27;20244;-70
2022/03/31 09:25:26;;;;;;;14.93;11.20;;;6.70;99.90;;;;;;5131242;27;20226;-70
2022/03/31 09:27:55;;;;;;;16.10;10.00;;;6.70;99.90;;;;;;5135045;27;20222;-70
2022/03/31 09:30:25;;;;;;;16.60;10.45;;;6.80;99.90;;;;;;5125467;27;20264;-71
2022/03/31 09:32:53;;;;;;;11.95;10.75;;;7.10;99.90;;;;;;5130300;27;20209;-72
2022/03/31 09:35:24;;;;;;;11.50;10.30;;;7.20;99.90;;;;;;5127588;27;20217;-71
2022/03/31 09:37:51;;;;;;;12.02;10.50;;;7.10;99.90;;;;;;5132299;27;20300;-72
2022/03/31 09:40:20;;;;;;;13.23;11.00;;;7.30;99.90;;;;;;5123466;27;20285;-71
2022/03/31 09:43:01;;;;;;;11.15;9.10;;;7.20;99.90;;;;;;5126761;27;20199;-72
2022/03/31 09:45:39;;;;;;;12.75;11.00;;;7.20;99.90;;;;;;5122886;27;20754;-71
2022/03/31 09:48:16;;;;;;;13.48;10.05;;;7.30;99.90;;;;;;5119205;27;20202;-70
2022/03/31 09:50:44;;;;;;;11.65;9.45;;;7.20;99.90;;;;;;5116555;27;20194;-71
2022/03/31 09:53:12;;;;;;;12.80;9.13;;;6.90;99.90;;;;;;5129817;27;20218;-71
2022/03/31 09:55:41;;;;;;;13.85;11.77;;;6.60;99.90;;;;;;5132128;27;20201;-70
2022/03/31 09:58:09;;;;;;;13.45;11.38;;;6.50;99.90;;;;;;5126521;27;20281;-71
2022/03/31 10:00:37;;;;;;;15.25;10.15;;;6.70;99.90;;;;;;5125945;27;20289;-71
2022/03/31 10:03:06;;;;;;;12.90;9.55;;;6.60;99.90;;;;;;5119115;27;20294;-71
2022/03/31 10:05:33;;;;;;;12.25;10.18;;;6.70;99.90;;;;;;5128646;27;20269;-71
2022/03/31 10:08:02;;;;;;;11.07;9.57;;;6.90;99.90;;;;;;5122137;27;20293;-71
2022/03/31 10:10:29;;;;;;;11.27;9.93;;;6.80;99.90;;;;;;5126539;27;20217;-69
2022/03/31 10:20:25;;;;;;;16.13;9.32;;;6.50;99.90;;;;;;4985153;28;20201;-81
2022/03/31 10:26:22;;;;;;;12.25;10.60;;;6.30;99.90;;;;;;5010716;28;20748;-83
2022/03/31 10:28:55;;;;;;;18.27;11.40;;;6.20;99.90;;;;;;5008392;28;20204;-80
2022/03/31 10:31:22;;;;;;;10.98;9.88;;;6.20;99.90;;;;;;5052387;28;20227;-81
2022/03/31 10:33:53;;;;;;;9.82;8.65;;;6.20;99.90;;;;;;5089121;28;20195;-82
2022/03/31 10:36:23;;;;;;;9.90;8.80;;;6.30;99.90;;;;;;5087153;28;20222;-81
2022/03/31 10:38:55;;;;;;;12.00;8.70;;;6.30;99.90;;;;;;5090016;28;20210;-83
2022/03/31 10:41:30;;;;;;;10.38;8.60;;;6.50;99.90;;;;;;5083449;28;20199;-79
2022/03/31 10:43:58;;;;;;;10.35;9.02;;;6.60;99.90;;;;;;5086947;28;20226;-80
2022/03/31 10:46:28;;;;;;;15.40;9.45;;;6.80;99.90;;;;;;5084829;28;20275;-81
2022/03/31 10:48:57;;;;;;;9.95;7.97;;;6.70;99.90;;;;;;5091773;28;20714;-81
2022/03/31 10:51:37;;;;;;;13.88;8.80;;;6.60;99.90;;;;;;5085634;28;20565;-80
2022/03/31 10:54:06;;;;;;;12.52;7.75;;;6.70;99.90;;;;;;5096788;28;20203;-81
2022/03/31 10:56:35;;;;;;;16.38;8.45;;;6.80;99.90;;;;;;5090535;28;20226;-83
2022/03/31 10:59:04;;;;;;;8.57;7.68;;;7.10;99.90;;;;;;5099298;28;20207;-83
2022/03/31 11:04:22;;;;;;;9.93;8.55;;;7.70;99.90;;;;;;5093050;28;20205;-84
2022/03/31 11:06:55;;;;;;;9.82;7.50;;;7.80;99.90;;;;;;5091971;28;20200;-81
2022/03/31 11:12:21;;;;;;;10.80;7.80;;;8.10;99.90;;;;;;5097225;28;20259;-84
2022/03/31 11:14:57;;;;;;;10.80;8.15;;;8.20;99.90;;;;;;5099043;28;20190;-85
2022/03/31 11:17:29;;;;;;;11.27;8.18;;;7.90;99.90;;;;;;5088945;28;20226;-84
2022/03/31 11:19:58;;;;;;;9.95;8.35;;;8.00;99.90;;;;;;5102151;28;20220;-83
2022/03/31 11:22:30;;;;;;;10.48;7.95;;;7.70;99.90;;;;;;5104117;28;20224;-83
2022/03/31 11:25:11;;;;;;;10.00;8.07;;;8.10;99.90;;;;;;5094262;28;20195;-82
2022/03/31 11:27:40;;;;;;;9.80;7.75;;;8.20;99.90;;;;;;5093362;28;20209;-84
2022/03/31 11:30:11;;;;;;;8.63;6.70;;;8.10;99.90;;;;;;5088911;28;20202;-83
2022/03/31 11:32:40;;;;;;;11.15;7.25;;;8.30;99.90;;;;;;5085444;28;20251;-83
2022/03/31 11:35:14;;;;;;;10.95;7.03;;;8.30;99.90;;;;;;5079395;28;20198;-79
2022/03/31 11:37:53;;;;;;;7.70;6.78;;;8.60;99.90;;;;;;5080364;28;20218;-81
2022/03/31 11:40:22;;;;;;;8.70;6.70;;;8.70;99.90;;;;;;5084661;28;20251;-79
2022/03/31 11:42:51;;;;;;;7.97;6.57;;;8.70;99.90;;;;;;5085407;28;20242;-83
2022/03/31 11:45:33;;;;;;;7.60;5.95;;;8.60;99.90;;;;;;5084959;28;20223;-81
2022/03/31 11:48:02;;;;;;;9.68;6.50;;;8.50;99.90;;;;;;5086245;28;20206;-81
2022/03/31 11:50:30;;;;;;;9.18;6.65;;;8.40;99.90;;;;;;5088403;28;20237;-85
2022/03/31 11:53:00;;;;;;;7.28;5.55;;;8.50;99.90;;;;;;5085414;28;20241;-81
2022/03/31 11:55:27;;;;;;;7.20;5.10;;;8.50;99.90;;;;;;5076697;28;20206;-82
2022/03/31 11:57:56;;;;;;;6.63;5.93;;;8.50;99.90;;;;;;5082653;28;20532;-80
2022/03/31 12:00:25;;;;;;;8.32;5.65;;;8.40;99.90;;;;;;5091375;28;20203;-81
2022/03/31 12:02:57;;;;;;;7.30;5.65;;;8.60;99.90;;;;;;5086356;28;20223;-83
2022/03/31 12:05:23;;;;;;;7.75;5.63;;;8.70;99.90;;;;;;5091866;28;20258;-80
2022/03/31 12:07:52;;;;;;;6.25;5.15;;;8.40;99.90;;;;;;5084750;28;20210;-83
2022/03/31 12:10:21;;;;;;;8.15;6.55;;;8.30;99.90;;;;;;5083825;28;20297;-84
2022/03/31 12:12:49;;;;;;;11.23;5.55;;;8.50;99.90;;;;;;5072280;28;20273;-83
2022/03/31 12:15:21;;;;;;;8.45;6.05;;;8.30;99.90;;;;;;5083972;28;20194;-81
2022/03/31 12:18:03;;;;;;;8.93;5.68;;;8.30;99.90;;;;;;5097400;28;20277;-83
2022/03/31 12:20:31;;;;;;;8.32;5.82;;;8.30;99.90;;;;;;5089907;28;20278;-82
2022/03/31 12:22:58;;;;;;;9.50;5.25;;;8.50;99.90;;;;;;5086047;28;20215;-81
2022/03/31 12:25:36;;;;;;;6.75;5.40;;;8.90;99.80;;;;;;5069186;28;20211;-83
2022/03/31 12:28:04;;;;;;;7.72;5.18;;;9.00;99.40;;;;;;5088306;28;20193;-81
2022/03/31 12:30:47;;;;;;;9.30;5.25;;;9.10;97.70;;;;;;5086668;28;20199;-84
2022/03/31 12:33:22;;;;;;;9.43;4.85;;;9.00;97.40;;;;;;5095292;28;20225;-84
2022/03/31 12:35:57;;;;;;;5.78;4.60;;;9.00;97.70;;;;;;5095260;28;20218;-82
2022/03/31 12:38:37;;;;;;;9.27;5.45;;;8.90;98.20;;;;;;5094733;28;20229;-80
2022/03/31 12:41:08;;;;;;;5.15;4.60;;;9.10;96.50;;;;;;5088348;28;20206;-80
2022/03/31 12:43:35;;;;;;;6.70;5.07;;;8.90;95.20;;;;;;5086487;28;20235;-81
2022/03/31 12:46:13;;;;;;;6.28;3.97;;;9.00;95.40;;;;;;5082980;28;20276;-80
2022/03/31 12:48:53;;;;;;;6.10;4.15;;;9.00;94.40;;;;;;5093915;28;20328;-82
2022/03/31 12:51:20;;;;;;;6.35;4.57;;;9.00;94.60;;;;;;5090310;28;20187;-83
2022/03/31 12:53:47;;;;;;;6.68;4.15;;;9.10;93.50;;;;;;5084251;28;20230;-81
2022/03/31 12:56:24;;;;;;;5.25;4.03;;;9.00;93.10;;;;;;5088628;28;20247;-82
2022/03/31 12:58:53;;;;;;;3.80;3.33;;;9.00;91.90;;;;;;5088875;28;20333;-80
2022/03/31 13:01:21;;;;;;;9.48;4.20;;;9.00;92.10;;;;;;5092427;28;20210;-82
2022/03/31 13:03:48;;;;;;;3.95;3.35;;;9.10;91.90;;;;;;5088479;28;20203;-83
2022/03/31 13:06:17;;;;;;;4.78;3.35;;;9.20;92.10;;;;;;5087890;28;20205;-80
2022/03/31 13:08:44;;;;;;;12.50;3.85;;;9.20;91.80;;;;;;5089577;28;20203;-78
2022/03/31 13:11:11;;;;;;;4.38;3.58;;;9.30;92.00;;;;;;5086249;28;20203;-80
2022/03/31 13:13:40;;;;;;;4.82;3.60;;;9.30;91.50;;;;;;5088629;28;20666;-82
2022/03/31 13:16:07;;;;;;;5.30;3.45;;;9.20;91.10;;;;;;5082762;28;20207;-79
2022/03/31 13:18:35;;;;;;;7.05;3.80;;;9.30;91.40;;;;;;5084498;28;20293;-80